Time;durP1;ratioP1;P1;durP2;ratioP2;P2;SDS_P1;SDS_P2;PMS_P1;PMS_P2;Temp;Humidity;BMP_temperature;BMP_pressure;BME280_temperature;BME280_humidity;BME280_pressure;Samples;Min_cycle;Max_cycle;Signal;HPM_P1;HPM_P2
2022/06/14 00:01:28;;;;;;;3.75;2.00;;;21.60;84.60;;;;;;5022319;28;20049;-69
2022/06/14 00:04:33;;;;;;;3.67;1.88;;;21.60;85.00;;;;;;5012049;28;20041;-68
2022/06/14 00:07:37;;;;;;;3.50;2.00;;;21.60;85.40;;;;;;5030986;28;20052;-69
2022/06/14 00:10:41;;;;;;;5.32;1.98;;;21.60;85.10;;;;;;5027325;28;20053;-69
2022/06/14 00:13:47;;;;;;;4.18;2.05;;;21.50;85.30;;;;;;5031304;28;20052;-68
2022/06/14 00:16:51;;;;;;;5.47;1.95;;;21.50;85.10;;;;;;5031265;28;20323;-68
2022/06/14 00:19:55;;;;;;;5.95;2.22;;;21.50;85.50;;;;;;5026383;28;20044;-68
2022/06/14 00:23:00;;;;;;;4.78;2.35;;;21.50;85.70;;;;;;5030359;28;20044;-68
2022/06/14 00:26:05;;;;;;;3.47;2.20;;;21.40;86.30;;;;;;5011576;28;20049;-69
2022/06/14 00:29:09;;;;;;;9.85;3.33;;;21.30;86.40;;;;;;5028290;28;20369;-68
2022/06/14 00:32:14;;;;;;;5.38;2.22;;;21.20;86.90;;;;;;5029246;28;20048;-69
2022/06/14 00:35:18;;;;;;;7.55;2.35;;;21.10;86.90;;;;;;5011659;28;20052;-69
2022/06/14 00:38:23;;;;;;;4.03;2.00;;;21.10;87.40;;;;;;5026115;28;20191;-69
2022/06/14 00:41:28;;;;;;;3.83;2.30;;;21.00;87.70;;;;;;5026713;28;20048;-68
2022/06/14 00:44:32;;;;;;;4.18;2.22;;;20.80;87.90;;;;;;5031583;28;20045;-68
2022/06/14 00:47:45;;;;;;;3.83;2.00;;;20.80;88.10;;;;;;5011472;28;20045;-68
2022/06/14 00:50:56;;;;;;;3.50;1.92;;;20.70;89.20;;;;;;5015335;28;20045;-68
2022/06/14 00:54:13;;;;;;;3.47;2.42;;;20.70;90.00;;;;;;5011446;28;20049;-68
2022/06/14 00:57:24;;;;;;;4.10;1.90;;;20.60;89.50;;;;;;5011154;28;20045;-67
2022/06/14 01:00:34;;;;;;;5.30;2.80;;;20.50;90.40;;;;;;5011064;28;20048;-68
2022/06/14 01:04:19;;;;;;;5.28;2.30;;;20.50;90.20;;;;;;5010565;28;20045;-68
2022/06/14 01:07:40;;;;;;;3.78;2.20;;;20.40;90.50;;;;;;5011842;28;20491;-67
2022/06/14 01:10:47;;;;;;;6.63;2.55;;;20.30;91.10;;;;;;5030866;28;20052;-68
2022/06/14 01:13:51;;;;;;;4.78;2.30;;;20.00;91.40;;;;;;5010402;28;20052;-68
2022/06/14 01:16:55;;;;;;;4.07;2.30;;;19.90;91.30;;;;;;5010842;28;20048;-68
2022/06/14 01:19:59;;;;;;;3.85;2.30;;;19.80;91.50;;;;;;5030556;28;20052;-67
2022/06/14 01:23:08;;;;;;;2.90;1.90;;;19.60;91.90;;;;;;5030112;28;20056;-68
2022/06/14 01:26:18;;;;;;;2.90;2.20;;;19.50;91.90;;;;;;5025318;28;20044;-67
2022/06/14 01:29:24;;;;;;;3.75;2.22;;;19.40;92.10;;;;;;5030705;28;20044;-68
2022/06/14 01:32:32;;;;;;;3.85;2.20;;;19.30;92.30;;;;;;5012013;28;20049;-68
2022/06/14 01:35:39;;;;;;;3.75;2.10;;;19.30;92.50;;;;;;5014510;28;20049;-67
2022/06/14 01:38:46;;;;;;;3.75;2.10;;;19.30;92.60;;;;;;5011011;28;20499;-67
2022/06/14 01:42:00;;;;;;;3.38;2.15;;;19.30;92.60;;;;;;5010610;28;20033;-68
2022/06/14 01:45:40;;;;;;;4.10;2.20;;;19.30;92.60;;;;;;5021644;28;20392;-68
2022/06/14 01:52:30;;;;;;;8.07;3.08;;;19.30;93.20;;;;;;5026487;28;20041;-67
2022/06/14 01:55:44;;;;;;;4.88;2.38;;;19.30;93.50;;;;;;5011052;28;20041;-67
2022/06/14 01:58:53;;;;;;;3.70;2.50;;;19.30;94.00;;;;;;5023746;28;20044;-68
2022/06/14 02:02:01;;;;;;;4.00;2.25;;;19.30;94.00;;;;;;5023376;28;20045;-68
2022/06/14 02:05:26;;;;;;;6.13;2.38;;;19.30;94.10;;;;;;4998778;28;20069;-68
2022/06/14 02:08:37;;;;;;;5.65;2.42;;;19.10;94.20;;;;;;5029925;28;20057;-67
2022/06/14 02:11:42;;;;;;;5.50;2.60;;;19.10;94.50;;;;;;5024752;28;20064;-67
2022/06/14 02:14:58;;;;;;;5.72;2.70;;;19.10;94.70;;;;;;5028637;28;20048;-68
2022/06/14 02:18:22;;;;;;;3.15;2.53;;;19.10;94.90;;;;;;5013806;28;20049;-68
2022/06/14 02:21:33;;;;;;;3.97;2.60;;;19.10;95.10;;;;;;5013904;28;20049;-68
2022/06/14 02:25:16;;;;;;;8.93;2.40;;;19.10;95.10;;;;;;5017584;28;20048;-68
2022/06/14 02:28:32;;;;;;;4.53;2.40;;;19.10;95.30;;;;;;5013928;28;20045;-68
2022/06/14 02:31:50;;;;;;;4.60;2.42;;;19.10;95.50;;;;;;5013488;28;20057;-68
2022/06/14 02:35:09;;;;;;;5.63;2.20;;;19.00;95.60;;;;;;5029318;28;20040;-68
2022/06/14 02:38:15;;;;;;;8.43;3.15;;;18.90;95.80;;;;;;5032751;28;20109;-67
2022/06/14 02:41:24;;;;;;;5.63;2.80;;;18.90;96.30;;;;;;5033390;28;20518;-68
2022/06/14 02:44:52;;;;;;;7.53;2.60;;;18.80;96.70;;;;;;5013974;28;20049;-68
2022/06/14 02:48:19;;;;;;;6.18;2.92;;;18.80;97.20;;;;;;5013311;28;20048;-68
2022/06/14 02:51:37;;;;;;;6.25;2.72;;;18.70;97.00;;;;;;5013457;28;20052;-68
2022/06/14 02:55:12;;;;;;;5.60;2.75;;;18.70;97.40;;;;;;5013355;28;20069;-68
2022/06/14 02:58:39;;;;;;;5.38;2.70;;;18.70;97.80;;;;;;5013343;28;20492;-68
2022/06/14 03:01:48;;;;;;;3.25;2.58;;;18.70;98.40;;;;;;5017195;28;20044;-68
2022/06/14 03:05:04;;;;;;;6.45;2.97;;;18.70;98.40;;;;;;5016838;28;20392;-68
2022/06/14 03:08:17;;;;;;;3.85;2.60;;;18.60;98.60;;;;;;5013213;28;20041;-68
2022/06/14 03:11:27;;;;;;;7.15;3.70;;;18.60;98.80;;;;;;5012993;28;20057;-68
2022/06/14 03:14:38;;;;;;;3.60;2.38;;;18.50;99.00;;;;;;5012745;28;20536;-68
2022/06/14 03:18:00;;;;;;;3.22;2.40;;;18.50;99.40;;;;;;5016474;28;20044;-68
2022/06/14 03:21:12;;;;;;;7.63;2.75;;;18.40;99.20;;;;;;5031605;28;20064;-68
2022/06/14 03:24:59;;;;;;;7.53;2.58;;;18.40;99.50;;;;;;5015421;28;20057;-68
2022/06/14 03:28:24;;;;;;;6.97;2.70;;;18.40;99.60;;;;;;5016310;28;20484;-68
2022/06/14 03:31:48;;;;;;;9.00;2.70;;;18.50;99.60;;;;;;5016728;28;20048;-68
2022/06/14 03:35:00;;;;;;;5.45;2.95;;;18.50;99.60;;;;;;5012603;28;20045;-68
2022/06/14 03:38:12;;;;;;;6.05;2.75;;;18.40;99.90;;;;;;5031514;28;20036;-67
2022/06/14 03:41:24;;;;;;;8.45;2.95;;;18.20;99.90;;;;;;5022142;28;20057;-68
2022/06/14 03:44:29;;;;;;;;;;;18.00;99.90;;;;;;5011861;28;20049;-68
2022/06/14 03:47:33;;;;;;;6.28;3.42;;;17.90;99.90;;;;;;5012344;28;20360;-68
2022/06/14 03:50:48;;;;;;;7.47;2.83;;;17.80;99.90;;;;;;5012083;28;20045;-68
2022/06/14 03:53:58;;;;;;;4.28;2.80;;;17.70;99.90;;;;;;5012383;28;20049;-68
2022/06/14 03:57:14;;;;;;;8.73;3.05;;;17.70;99.90;;;;;;5012201;28;20049;-68
2022/06/14 04:00:30;;;;;;;5.70;2.95;;;17.70;99.90;;;;;;5030034;28;20121;-68
2022/06/14 04:03:53;;;;;;;4.35;3.30;;;17.70;99.90;;;;;;5018937;28;20037;-67
2022/06/14 11:04:02;;;;;;;2.55;1.65;;;43.00;58.20;;;;;;5026756;28;20048;-71
2022/06/14 11:07:25;;;;;;;4.70;1.60;;;44.40;57.30;;;;;;5022864;28;20040;-70
2022/06/14 11:10:46;;;;;;;5.22;1.85;;;45.00;57.10;;;;;;5021326;28;20052;-70
2022/06/14 11:13:51;;;;;;;3.15;1.40;;;43.00;55.80;;;;;;5024430;28;20396;-70
2022/06/14 11:17:16;;;;;;;9.05;1.33;;;44.20;56.10;;;;;;5026214;28;20044;-69
2022/06/14 11:20:44;;;;;;;7.15;1.50;;;45.70;56.40;;;;;;5027755;28;20048;-70
2022/06/14 11:24:12;;;;;;;2.45;1.20;;;45.30;56.50;;;;;;5028107;28;20376;-70
2022/06/14 11:27:22;;;;;;;7.10;1.53;;;46.00;55.80;;;;;;5026112;28;20029;-69
2022/06/14 11:30:35;;;;;;;;;;;43.90;56.50;;;;;;5028451;28;20746;-70
2022/06/14 11:34:06;;;;;;;3.92;1.48;;;43.60;57.30;;;;;;5026769;28;19909;-69
2022/06/14 11:37:23;;;;;;;;;;;44.30;57.40;;;;;;5025899;28;20049;-71
2022/06/14 11:40:30;;;;;;;2.88;1.50;;;44.70;56.70;;;;;;5023222;28;19913;-69
2022/06/14 11:43:50;;;;;;;2.85;1.40;;;44.20;57.00;;;;;;5022971;28;20052;-69
2022/06/14 11:47:21;;;;;;;4.88;1.63;;;44.50;57.70;;;;;;5037277;28;20044;-71
2022/06/14 11:50:39;;;;;;;2.45;1.50;;;44.80;57.90;;;;;;5025874;28;20035;-70
2022/06/14 11:53:59;;;;;;;1.92;1.60;;;45.30;57.20;;;;;;5022985;28;20052;-68
2022/06/14 11:57:11;;;;;;;3.45;1.75;;;45.30;57.30;;;;;;5023309;28;20047;-70
2022/06/14 12:00:54;;;;;;;3.00;1.50;;;45.00;56.50;;;;;;5024273;28;20056;-69
2022/06/14 12:04:14;;;;;;;4.95;2.05;;;44.20;57.80;;;;;;5025443;28;20483;-69
2022/06/14 12:07:30;;;;;;;4.38;1.75;;;40.70;59.00;;;;;;5023654;28;20036;-68
2022/06/14 12:11:00;;;;;;;3.40;1.60;;;39.80;62.20;;;;;;5021326;28;20053;-70
2022/06/14 12:14:23;;;;;;;3.63;1.77;;;40.80;60.90;;;;;;5018722;28;20037;-69
2022/06/14 12:17:31;;;;;;;5.90;1.85;;;38.40;63.00;;;;;;5020689;28;20420;-70
2022/06/14 12:20:44;;;;;;;2.65;1.90;;;37.90;63.70;;;;;;5025428;28;20048;-69
2022/06/14 12:23:53;;;;;;;3.85;2.00;;;37.50;63.90;;;;;;5026617;28;20044;-69
2022/06/14 12:27:03;;;;;;;4.35;1.90;;;36.80;64.80;;;;;;5025777;28;20064;-69
2022/06/14 12:30:11;;;;;;;4.65;2.38;;;36.80;65.50;;;;;;5027095;28;20496;-69
2022/06/14 12:33:29;;;;;;;3.72;1.77;;;37.90;65.70;;;;;;5027704;28;20072;-68
2022/06/14 12:37:10;;;;;;;6.13;1.98;;;38.30;63.40;;;;;;5028680;28;20047;-70
2022/06/14 12:40:31;;;;;;;3.30;1.75;;;38.50;62.00;;;;;;4996078;28;20048;-69
2022/06/14 12:44:18;;;;;;;5.70;1.92;;;38.50;61.30;;;;;;5020811;28;20036;-70
2022/06/14 12:47:42;;;;;;;6.35;1.63;;;39.00;61.80;;;;;;5018662;28;20068;-69
2022/06/14 12:50:52;;;;;;;5.35;1.65;;;40.60;59.80;;;;;;5022162;28;20401;-70
2022/06/14 12:54:00;;;;;;;3.25;1.88;;;41.70;59.50;;;;;;5026740;28;20072;-69
2022/06/14 12:57:13;;;;;;;3.72;1.70;;;42.40;58.20;;;;;;5024444;28;20041;-70
2022/06/14 13:00:30;;;;;;;4.30;1.67;;;42.90;57.90;;;;;;5020579;28;20049;-70
2022/06/14 13:04:19;;;;;;;2.25;1.85;;;43.00;58.40;;;;;;5020865;28;20041;-70
2022/06/14 13:07:55;;;;;;;2.55;1.65;;;43.10;58.10;;;;;;5024782;28;20041;-69
2022/06/14 13:11:20;;;;;;;2.85;1.25;;;43.30;57.40;;;;;;5028413;28;20044;-69
2022/06/14 13:14:29;;;;;;;3.72;1.58;;;43.80;56.20;;;;;;5021488;28;20044;-69
2022/06/14 13:18:07;;;;;;;2.25;1.60;;;42.80;56.70;;;;;;5024114;28;20044;-68
2022/06/14 13:21:43;;;;;;;3.88;1.63;;;41.80;59.30;;;;;;5006703;28;20049;-71
2022/06/14 13:25:06;;;;;;;4.32;1.80;;;40.70;60.80;;;;;;5021586;28;20040;-69
2022/06/14 13:28:48;;;;;;;3.00;1.85;;;40.00;61.10;;;;;;5015872;28;20104;-67
2022/06/14 13:32:12;;;;;;;3.65;1.90;;;38.40;61.80;;;;;;5021041;28;20049;-68
2022/06/14 13:35:39;;;;;;;3.95;1.92;;;37.50;63.10;;;;;;5021030;28;20074;-69
2022/06/14 13:39:05;;;;;;;4.97;1.85;;;38.30;62.20;;;;;;5023997;28;20068;-71
2022/06/14 13:42:29;;;;;;;3.13;1.85;;;38.70;61.70;;;;;;5010272;28;20057;-72
2022/06/14 13:45:45;;;;;;;5.40;1.80;;;38.90;60.80;;;;;;5018548;28;20040;-70
2022/06/14 13:49:25;;;;;;;2.58;1.95;;;38.70;61.10;;;;;;5015559;28;20041;-71
2022/06/14 13:52:44;;;;;;;2.75;1.70;;;39.00;61.90;;;;;;4980737;28;20049;-70
2022/06/14 13:56:09;;;;;;;3.95;1.67;;;39.30;61.10;;;;;;5018242;28;20037;-71
2022/06/14 13:59:19;;;;;;;1.83;1.58;;;39.80;59.80;;;;;;5016686;28;20049;-69
2022/06/14 14:02:40;;;;;;;3.17;1.73;;;39.40;60.10;;;;;;5025285;28;20053;-70
2022/06/14 14:06:07;;;;;;;5.47;1.73;;;38.60;61.80;;;;;;5019277;28;20040;-71
2022/06/14 14:09:44;;;;;;;4.65;2.13;;;38.10;61.40;;;;;;5022203;28;20041;-69
2022/06/14 14:13:10;;;;;;;2.47;1.77;;;36.90;62.90;;;;;;5029136;28;20056;-69
2022/06/14 14:16:27;;;;;;;4.28;1.90;;;36.50;64.90;;;;;;5023983;28;20057;-70
2022/06/14 14:19:43;;;;;;;5.18;2.00;;;36.50;65.80;;;;;;5021858;28;20053;-68
2022/06/14 14:23:04;;;;;;;3.92;1.92;;;37.10;64.20;;;;;;5021083;28;20044;-67
2022/06/14 14:26:30;;;;;;;2.03;1.70;;;35.50;65.30;;;;;;5018238;28;20052;-68
2022/06/14 14:29:45;;;;;;;3.47;1.88;;;35.80;64.50;;;;;;5026003;28;20049;-69
2022/06/14 14:33:28;;;;;;;4.28;1.80;;;36.30;63.60;;;;;;5021499;28;20051;-70
2022/06/14 14:36:39;;;;;;;4.28;2.10;;;36.10;64.10;;;;;;5028507;28;20044;-68
2022/06/14 14:40:06;;;;;;;3.55;1.67;;;36.10;64.40;;;;;;5022678;28;20052;-69
2022/06/14 14:43:21;;;;;;;4.20;1.67;;;36.30;64.50;;;;;;5017530;28;20420;-68
2022/06/14 14:46:30;;;;;;;4.50;2.38;;;36.10;62.90;;;;;;5022665;28;20049;-68
2022/06/14 14:49:59;;;;;;;2.67;1.50;;;36.10;63.90;;;;;;5020932;28;20049;-67
2022/06/14 14:53:18;;;;;;;2.13;1.63;;;35.20;64.20;;;;;;5022835;28;20400;-69
2022/06/14 14:56:33;;;;;;;1.73;1.50;;;35.60;63.80;;;;;;5026434;28;20384;-69
2022/06/14 15:00:01;;;;;;;3.58;2.10;;;35.30;65.80;;;;;;5022156;28;20032;-68
2022/06/14 15:06:42;;;;;;;3.25;1.73;;;34.90;64.60;;;;;;5026923;28;20078;-68
2022/06/14 15:10:17;;;;;;;4.85;2.25;;;35.30;64.80;;;;;;5031956;28;20048;-69
2022/06/14 15:13:56;;;;;;;2.78;2.20;;;35.50;64.40;;;;;;5012852;28;20508;-69
2022/06/14 15:20:34;;;;;;;5.00;1.70;;;35.90;64.40;;;;;;5025297;28;20048;-69
2022/06/14 15:23:57;;;;;;;5.57;2.15;;;35.70;64.00;;;;;;5030329;28;20041;-68
2022/06/14 15:27:08;;;;;;;2.72;2.00;;;36.10;64.10;;;;;;5027960;28;20060;-69
2022/06/14 15:30:33;;;;;;;5.40;1.83;;;36.00;64.40;;;;;;5028732;28;20044;-69
2022/06/14 15:33:40;;;;;;;3.25;2.38;;;36.00;65.60;;;;;;5023749;28;20391;-69
2022/06/14 15:36:51;;;;;;;4.55;2.10;;;35.30;67.20;;;;;;5029369;28;20032;-69
2022/06/14 15:39:57;;;;;;;;;;;35.40;67.30;;;;;;5013621;28;20514;-68
2022/06/14 15:43:25;;;;;;;2.78;2.28;;;35.50;66.40;;;;;;5024594;28;19913;-70
2022/06/14 15:46:34;;;;;;;2.63;2.20;;;35.40;68.00;;;;;;5026708;28;20049;-69
2022/06/14 15:49:45;;;;;;;3.42;2.00;;;35.80;68.00;;;;;;5018620;28;20045;-69
2022/06/14 15:52:51;;;;;;;7.95;2.25;;;35.30;66.40;;;;;;5027940;28;20507;-69
2022/06/14 15:55:57;;;;;;;3.17;2.05;;;35.70;67.10;;;;;;5027567;28;20064;-68
2022/06/14 15:59:22;;;;;;;5.05;2.35;;;36.30;67.20;;;;;;5017487;28;20053;-70
2022/06/14 16:02:29;;;;;;;3.55;1.70;;;36.40;64.60;;;;;;5027592;28;20045;-68
2022/06/14 16:05:58;;;;;;;3.30;1.52;;;36.30;64.50;;;;;;5029519;28;20040;-68
2022/06/14 16:09:09;;;;;;;3.60;2.03;;;36.30;64.00;;;;;;5030567;28;20534;-69
2022/06/14 16:12:24;;;;;;;2.90;1.33;;;36.50;66.60;;;;;;5030508;28;20049;-68
2022/06/14 16:15:37;;;;;;;4.63;1.38;;;36.50;61.20;;;;;;5030723;28;20056;-68
2022/06/14 16:18:43;;;;;;;7.85;1.60;;;36.40;61.10;;;;;;5015971;28;20072;-69
2022/06/14 16:21:54;;;;;;;1.75;1.33;;;36.30;62.00;;;;;;5011515;28;20048;-68
2022/06/14 16:24:59;;;;;;;2.72;1.60;;;36.40;63.40;;;;;;5010674;28;20053;-69
2022/06/14 16:28:27;;;;;;;2.22;1.20;;;36.20;61.40;;;;;;5010951;28;20041;-67
2022/06/14 16:31:57;;;;;;;2.70;1.33;;;36.20;60.60;;;;;;5015191;28;20041;-68
2022/06/14 16:35:17;;;;;;;1.75;1.20;;;36.00;61.00;;;;;;5013789;28;20053;-68
2022/06/14 16:38:39;;;;;;;2.58;1.50;;;35.90;62.20;;;;;;5030974;28;20048;-69
2022/06/14 16:42:17;;;;;;;4.80;1.70;;;35.70;64.10;;;;;;5011689;28;20048;-68
2022/06/14 16:45:30;;;;;;;2.90;1.90;;;35.50;64.30;;;;;;5016459;28;20376;-69
2022/06/14 16:48:46;;;;;;;3.35;1.80;;;35.40;64.80;;;;;;5031159;28;20053;-68
2022/06/14 16:51:57;;;;;;;4.55;1.95;;;35.40;66.60;;;;;;5011832;28;20049;-68
2022/06/14 16:55:33;;;;;;;7.63;2.58;;;35.20;67.20;;;;;;5025431;28;20052;-69
2022/06/14 16:59:09;;;;;;;3.60;1.95;;;35.10;68.00;;;;;;5024648;28;20044;-69
2022/06/14 17:02:34;;;;;;;3.85;2.10;;;35.00;69.80;;;;;;5024126;28;20045;-69
2022/06/14 17:06:07;;;;;;;11.13;2.28;;;35.00;70.90;;;;;;5010603;28;20393;-68
2022/06/14 17:09:18;;;;;;;3.97;1.90;;;34.80;71.10;;;;;;5011132;28;20491;-68
2022/06/14 17:12:47;;;;;;;4.25;2.50;;;34.50;71.60;;;;;;5024753;28;20056;-69
2022/06/14 17:16:10;;;;;;;6.80;2.58;;;34.20;71.60;;;;;;5029372;28;20387;-68
2022/06/14 17:19:19;;;;;;;4.03;2.20;;;34.00;72.50;;;;;;5030500;28;20051;-69
2022/06/14 17:22:46;;;;;;;5.05;2.33;;;33.90;73.10;;;;;;5029698;28;20049;-66
2022/06/14 17:33:08;;;;;;;6.53;2.20;;;33.30;75.10;;;;;;5030054;28;20036;-69
2022/06/14 17:36:49;;;;;;;5.82;2.50;;;33.20;75.80;;;;;;5010345;28;20498;-70
2022/06/14 17:40:04;;;;;;;;;;;33.00;75.50;;;;;;5029877;28;20052;-70
2022/06/14 17:43:18;;;;;;;2.92;2.08;;;32.80;76.40;;;;;;5023255;28;19913;-69
2022/06/14 17:46:27;;;;;;;4.80;2.45;;;32.60;76.80;;;;;;5014043;28;20049;-70
2022/06/14 17:49:50;;;;;;;4.25;2.63;;;32.50;77.70;;;;;;5033044;28;20044;-70
2022/06/14 17:53:04;;;;;;;7.72;2.47;;;32.30;77.70;;;;;;5032325;28;20045;-70
2022/06/14 17:56:17;;;;;;;8.52;2.58;;;32.10;78.30;;;;;;5032061;28;20411;-70
2022/06/14 17:59:43;;;;;;;9.20;2.47;;;31.90;78.30;;;;;;5033993;28;20125;-70
2022/06/14 18:02:58;;;;;;;4.68;2.60;;;31.50;78.20;;;;;;5013669;28;20523;-69
2022/06/14 18:06:05;;;;;;;8.85;3.08;;;31.10;79.10;;;;;;5022141;28;20044;-70
2022/06/14 18:09:10;;;;;;;7.07;2.78;;;30.80;80.50;;;;;;5033272;28;20068;-70
2022/06/14 18:12:16;;;;;;;7.60;2.83;;;30.30;81.10;;;;;;5031285;28;20056;-69
2022/06/14 18:15:26;;;;;;;6.05;2.58;;;29.90;82.40;;;;;;5019674;28;20045;-69
2022/06/14 18:18:39;;;;;;;6.65;2.85;;;29.60;83.20;;;;;;5014781;28;20061;-69
2022/06/14 18:21:43;;;;;;;7.18;3.08;;;29.30;84.20;;;;;;5033790;28;20044;-70
2022/06/14 18:24:53;;;;;;;4.53;3.15;;;29.10;85.40;;;;;;5032877;28;20045;-70
2022/06/14 18:27:58;;;;;;;7.95;3.35;;;29.00;86.40;;;;;;5031152;28;20037;-70
2022/06/14 18:31:23;;;;;;;7.40;3.17;;;29.00;86.60;;;;;;5033209;28;20045;-70
2022/06/14 18:34:46;;;;;;;6.93;3.40;;;28.90;87.00;;;;;;5013596;28;20037;-70
2022/06/14 18:37:51;;;;;;;7.57;3.20;;;28.90;87.30;;;;;;5029687;28;20036;-70
2022/06/14 18:40:55;;;;;;;5.28;2.78;;;28.60;88.00;;;;;;5026529;28;20049;-69
2022/06/14 18:44:08;;;;;;;8.10;2.90;;;28.50;88.90;;;;;;5013509;28;20052;-70
2022/06/14 18:47:24;;;;;;;8.90;3.38;;;28.30;89.40;;;;;;5029293;28;20044;-70
2022/06/14 18:50:36;;;;;;;9.23;4.10;;;28.30;89.80;;;;;;5027883;28;20037;-69
2022/06/14 18:53:49;;;;;;;6.75;3.28;;;28.10;90.20;;;;;;5031917;28;20078;-69
2022/06/14 18:56:59;;;;;;;7.50;3.15;;;28.00;90.50;;;;;;5011599;28;20045;-69
2022/06/14 19:00:04;;;;;;;7.53;2.90;;;27.90;90.70;;;;;;5012606;28;20389;-69
2022/06/14 19:03:12;;;;;;;15.57;3.60;;;27.80;91.00;;;;;;5012427;28;20049;-68
2022/06/14 19:06:20;;;;;;;12.23;4.55;;;27.70;91.30;;;;;;5012661;28;20049;-69
2022/06/14 19:09:52;;;;;;;6.20;3.17;;;27.60;91.40;;;;;;5016241;28;20041;-69
2022/06/14 19:13:29;;;;;;;14.75;4.60;;;27.50;91.50;;;;;;5016042;28;20077;-68
2022/06/14 19:16:52;;;;;;;7.55;3.65;;;27.50;91.50;;;;;;5011947;28;20057;-68
2022/06/14 19:20:03;;;;;;;7.03;3.70;;;27.50;91.50;;;;;;5012517;28;20056;-69
2022/06/14 19:23:27;;;;;;;6.30;3.55;;;27.40;91.90;;;;;;5011324;28;20041;-69
2022/06/14 19:27:13;;;;;;;9.77;3.80;;;27.30;92.10;;;;;;5019670;28;20049;-69
2022/06/14 19:30:21;;;;;;;6.93;3.50;;;27.20;92.20;;;;;;5027615;28;20048;-69
2022/06/14 19:33:39;;;;;;;14.68;3.90;;;27.20;92.40;;;;;;5032329;28;20045;-68
2022/06/14 19:36:56;;;;;;;6.45;3.38;;;27.20;92.50;;;;;;5011701;28;20048;-68
2022/06/14 19:40:01;;;;;;;14.77;4.00;;;27.10;92.80;;;;;;5011941;28;20049;-68
2022/06/14 19:43:12;;;;;;;11.27;3.92;;;27.00;92.80;;;;;;5011547;28;20045;-68
2022/06/14 19:46:42;;;;;;;16.30;4.32;;;27.00;93.00;;;;;;5011514;28;20049;-69
2022/06/14 19:53:20;;;;;;;7.25;3.42;;;27.00;92.90;;;;;;5018346;28;20053;-69
2022/06/14 19:56:23;;;;;;;4.25;3.47;;;27.00;93.00;;;;;;5030306;28;20060;-68
2022/06/14 19:59:53;;;;;;;9.93;3.50;;;26.90;93.10;;;;;;5011647;28;20053;-69
2022/06/14 20:02:57;;;;;;;7.88;3.55;;;26.90;93.10;;;;;;5011716;28;20053;-69
2022/06/14 20:06:20;;;;;;;5.85;2.80;;;26.90;93.20;;;;;;5012951;28;20037;-68
2022/06/14 20:09:29;;;;;;;10.27;3.80;;;26.90;93.10;;;;;;5031461;28;20374;-69
2022/06/14 20:12:34;;;;;;;7.95;3.30;;;26.80;93.40;;;;;;5011597;28;20053;-69
2022/06/14 20:15:56;;;;;;;6.05;3.20;;;26.80;93.50;;;;;;5014402;28;20106;-69
2022/06/14 20:19:07;;;;;;;11.80;4.28;;;26.80;93.60;;;;;;5013526;28;20045;-69
2022/06/14 20:22:13;;;;;;;8.02;3.70;;;26.70;93.90;;;;;;5031339;28;20052;-69
2022/06/14 20:25:20;;;;;;;10.55;3.88;;;26.70;94.00;;;;;;5030092;28;20044;-69
2022/06/14 20:28:28;;;;;;;9.70;3.85;;;26.70;94.00;;;;;;5026588;28;20507;-69
2022/06/14 20:31:50;;;;;;;6.70;3.92;;;26.70;94.20;;;;;;5031173;28;20048;-69
2022/06/14 20:34:58;;;;;;;9.48;3.42;;;26.60;94.30;;;;;;5012248;28;20045;-69
2022/06/14 20:38:03;;;;;;;5.55;3.67;;;26.60;94.60;;;;;;5016966;28;20499;-68
2022/06/14 20:41:08;;;;;;;5.72;3.70;;;26.60;94.60;;;;;;5030403;28;20068;-69
2022/06/14 20:44:13;;;;;;;11.93;3.75;;;26.50;95.10;;;;;;5011195;28;20049;-69
2022/06/14 20:47:19;;;;;;;9.02;3.83;;;26.50;95.10;;;;;;5010858;28;20393;-69
2022/06/14 20:50:33;;;;;;;8.60;4.18;;;26.40;95.30;;;;;;5013151;28;20045;-69
2022/06/14 20:53:39;;;;;;;5.63;4.15;;;26.40;95.80;;;;;;5030767;28;20044;-68
2022/06/14 20:56:53;;;;;;;6.35;3.88;;;26.30;96.00;;;;;;5015920;28;20065;-69
2022/06/14 20:59:57;;;;;;;9.07;4.13;;;26.30;96.10;;;;;;5013273;28;20396;-69
2022/06/14 21:03:04;;;;;;;7.70;3.55;;;26.30;96.70;;;;;;5031045;28;20048;-69
2022/06/14 21:06:08;;;;;;;8.90;4.05;;;26.30;96.60;;;;;;5029553;28;20045;-69
2022/06/14 21:09:19;;;;;;;6.90;3.95;;;26.30;96.80;;;;;;5023307;28;20036;-69
2022/06/14 21:12:33;;;;;;;13.98;4.30;;;26.20;97.30;;;;;;5010659;28;20077;-69
2022/06/14 21:15:51;;;;;;;10.35;5.93;;;26.00;98.20;;;;;;5010301;28;20037;-69
2022/06/14 21:18:57;;;;;;;6.50;3.90;;;25.90;98.30;;;;;;5013719;28;20056;-69
2022/06/14 21:22:02;;;;;;;7.40;4.20;;;25.90;98.80;;;;;;5009896;28;20037;-69
2022/06/14 21:25:06;;;;;;;8.80;4.35;;;25.80;99.00;;;;;;5010658;28;20104;-69
2022/06/14 21:28:18;;;;;;;6.10;3.78;;;25.70;99.50;;;;;;5013392;28;20057;-69
2022/06/14 21:31:24;;;;;;;8.27;4.22;;;25.60;99.90;;;;;;5012904;28;20045;-69
2022/06/14 21:34:30;;;;;;;7.75;3.88;;;25.60;99.90;;;;;;5030034;28;20275;-69
2022/06/14 21:37:39;;;;;;;4.93;4.18;;;25.60;99.90;;;;;;5027242;28;20044;-69
2022/06/14 21:41:09;;;;;;;5.25;3.90;;;25.40;99.90;;;;;;5028854;28;20037;-69
2022/06/14 21:44:13;;;;;;;4.22;3.83;;;25.30;99.90;;;;;;5026900;28;20048;-68
2022/06/14 21:47:26;;;;;;;5.90;4.15;;;25.30;99.90;;;;;;5007574;28;20045;-68
2022/06/14 21:50:33;;;;;;;5.07;3.90;;;25.20;99.90;;;;;;5023126;28;20048;-68
2022/06/14 21:53:40;;;;;;;7.78;4.30;;;25.20;99.90;;;;;;5022610;28;20049;-68
2022/06/14 21:56:46;;;;;;;6.22;4.22;;;25.10;99.90;;;;;;5009922;28;20794;-68
2022/06/14 21:59:51;;;;;;;4.93;4.20;;;25.00;99.90;;;;;;5010252;28;20052;-68
2022/06/14 22:02:55;;;;;;;7.88;4.80;;;25.00;99.90;;;;;;5009568;28;20053;-68
2022/06/14 22:06:08;;;;;;;6.18;4.43;;;25.00;99.90;;;;;;5009871;28;20041;-69
2022/06/14 22:09:12;;;;;;;6.43;4.13;;;24.90;99.90;;;;;;5009776;28;20041;-69
2022/06/14 22:12:25;;;;;;;7.38;4.35;;;24.90;99.90;;;;;;5013079;28;20173;-68
2022/06/14 22:15:29;;;;;;;4.90;3.80;;;24.90;99.90;;;;;;5009985;28;20044;-68
2022/06/14 22:18:33;;;;;;;9.95;4.38;;;24.80;99.90;;;;;;5010272;28;20048;-68
2022/06/14 22:21:37;;;;;;;8.95;4.38;;;24.80;99.90;;;;;;5009157;28;20412;-69
2022/06/14 22:24:42;;;;;;;5.47;4.10;;;24.80;99.90;;;;;;5013764;28;20056;-68
2022/06/14 22:27:48;;;;;;;6.78;4.00;;;24.80;99.90;;;;;;5009339;28;20044;-68
2022/06/14 22:30:52;;;;;;;10.38;4.72;;;24.80;99.90;;;;;;5022971;28;20048;-68
2022/06/14 22:33:58;;;;;;;7.43;4.18;;;24.80;99.90;;;;;;5029957;28;20052;-68
2022/06/14 22:37:02;;;;;;;11.60;4.97;;;24.70;99.90;;;;;;5012040;28;20100;-68
2022/06/14 22:40:08;;;;;;;7.22;4.10;;;24.70;99.90;;;;;;5028956;28;20409;-68
2022/06/14 22:43:13;;;;;;;9.32;4.38;;;24.60;99.90;;;;;;5027266;28;20045;-67
2022/06/14 22:46:20;;;;;;;6.65;4.32;;;24.70;99.90;;;;;;5012880;28;20053;-69
2022/06/14 22:49:26;;;;;;;7.63;3.90;;;24.60;99.90;;;;;;5031613;28;20068;-69
2022/06/14 22:52:30;;;;;;;5.05;3.90;;;24.60;99.90;;;;;;5020803;28;20053;-69
2022/06/14 22:55:34;;;;;;;4.55;3.67;;;24.50;99.90;;;;;;5012507;28;20511;-69
2022/06/14 22:58:42;;;;;;;8.07;4.03;;;24.50;99.90;;;;;;5013105;28;20049;-69
2022/06/14 23:01:48;;;;;;;9.20;4.30;;;24.50;99.90;;;;;;5016389;28;20491;-69
2022/06/14 23:04:51;;;;;;;5.28;4.10;;;24.50;99.90;;;;;;5015829;28;20048;-69
2022/06/14 23:07:55;;;;;;;5.03;4.18;;;24.40;99.90;;;;;;5031997;28;20049;-69
2022/06/14 23:11:02;;;;;;;6.75;4.65;;;24.30;99.90;;;;;;5014510;28;20049;-69
2022/06/14 23:14:06;;;;;;;5.22;4.22;;;24.30;99.90;;;;;;5012129;28;20053;-70
2022/06/14 23:17:10;;;;;;;6.13;4.28;;;24.20;99.90;;;;;;5012433;28;20061;-69
2022/06/14 23:20:14;;;;;;;7.18;4.45;;;24.20;99.90;;;;;;5012272;28;20045;-69
2022/06/14 23:23:18;;;;;;;5.88;4.65;;;24.20;99.90;;;;;;5018755;28;20547;-69
2022/06/14 23:26:21;;;;;;;5.38;4.20;;;24.10;99.90;;;;;;5032383;28;20189;-69
2022/06/14 23:29:25;;;;;;;6.78;4.30;;;24.10;99.90;;;;;;5028184;28;20040;-69
2022/06/14 23:32:29;;;;;;;5.50;4.40;;;24.10;99.90;;;;;;5025494;28;20057;-69
2022/06/14 23:35:35;;;;;;;9.07;5.15;;;24.10;99.90;;;;;;5012366;28;20495;-69
2022/06/14 23:38:39;;;;;;;9.32;4.85;;;24.00;99.90;;;;;;5012300;28;20392;-69
2022/06/14 23:41:44;;;;;;;6.85;3.88;;;24.00;99.90;;;;;;5018589;28;20056;-69
2022/06/14 23:44:48;;;;;;;6.38;4.20;;;24.00;99.90;;;;;;5031212;28;20053;-69
2022/06/14 23:47:55;;;;;;;5.35;3.90;;;23.90;99.90;;;;;;5022257;28;20045;-69
2022/06/14 23:51:00;;;;;;;10.65;4.43;;;23.90;99.90;;;;;;5024406;28;20534;-70
2022/06/14 23:54:05;;;;;;;6.38;4.10;;;23.90;99.90;;;;;;5028701;28;20065;-69
2022/06/14 23:57:09;;;;;;;6.00;4.32;;;23.90;99.90;;;;;;5011333;28;20057;-69
